Time;durP1;ratioP1;P1;durP2;ratioP2;P2;SDS_P1;SDS_P2;PMS_P1;PMS_P2;Temp;Humidity;BMP_temperature;BMP_pressure;BME280_temperature;BME280_humidity;BME280_pressure;Samples;Min_cycle;Max_cycle;Signal;HPM_P1;HPM_P2
2023/02/09 00:00:18;;;;;;;23.42;10.20;;;;;;;0.53;48.66;102804.06;5094585;28;20071;-53
2023/02/09 00:02:45;;;;;;;24.10;9.93;;;;;;;0.54;49.03;102795.31;5095562;28;20054;-52
2023/02/09 00:05:11;;;;;;;25.23;10.02;;;;;;;0.48;49.85;102792.88;5095430;28;20052;-53
2023/02/09 00:07:39;;;;;;;22.73;8.88;;;;;;;0.54;49.93;102795.31;5095462;28;20040;-53
2023/02/09 00:10:06;;;;;;;22.90;9.88;;;;;;;0.51;49.98;102800.66;5093951;28;20036;-52
2023/02/09 00:15:19;;;;;;;26.48;9.35;;;;;;;0.45;49.85;102786.88;5094567;28;20521;-53
2023/02/09 00:17:46;;;;;;;26.38;9.50;;;;;;;0.49;50.03;102792.00;5095464;28;20410;-53
2023/02/09 00:20:12;;;;;;;24.60;9.68;;;;;;;0.49;51.18;102778.06;5094974;28;20047;-51
2023/02/09 00:22:39;;;;;;;25.90;9.32;;;;;;;0.47;50.92;102779.84;5076179;28;20040;-53
2023/02/09 00:25:06;;;;;;;27.95;9.05;;;;;;;0.44;51.30;102780.81;5094926;28;20044;-53
2023/02/09 00:27:34;;;;;;;24.23;9.70;;;;;;;0.48;51.19;102774.59;5094937;28;20114;-54
2023/02/09 00:30:03;;;;;;;30.92;10.63;;;;;;;0.45;50.80;102772.06;5094954;28;20051;-52
2023/02/09 00:32:31;;;;;;;23.58;9.32;;;;;;;0.44;50.54;102772.09;5094761;28;20165;-50
2023/02/09 00:34:58;;;;;;;26.75;9.98;;;;;;;0.38;51.64;102774.00;5094869;28;20072;-51
2023/02/09 00:37:27;;;;;;;27.10;10.25;;;;;;;0.38;51.60;102768.75;5094710;28;20048;-51
2023/02/09 00:39:53;;;;;;;24.02;9.75;;;;;;;0.30;51.97;102769.84;5094895;28;20044;-52
2023/02/09 00:42:20;;;;;;;29.42;9.60;;;;;;;0.40;51.50;102775.69;5094774;28;20051;-53
2023/02/09 00:44:47;;;;;;;22.52;9.48;;;;;;;0.30;51.81;102773.31;5094893;28;20044;-51
2023/02/09 00:47:14;;;;;;;24.92;9.90;;;;;;;0.17;52.56;102769.28;5094507;28;20040;-51
2023/02/09 00:49:41;;;;;;;25.52;9.32;;;;;;;0.14;52.04;102771.97;5094590;28;20062;-52
2023/02/09 00:52:07;;;;;;;27.60;9.88;;;;;;;0.17;51.82;102766.69;5094222;28;20051;-52
2023/02/09 00:54:35;;;;;;;25.95;9.85;;;;;;;0.18;52.32;102769.25;5094411;28;20135;-51
2023/02/09 00:57:04;;;;;;;27.73;10.35;;;;;;;0.18;51.72;102768.38;5094308;28;20067;-52
2023/02/09 00:59:34;;;;;;;25.42;9.93;;;;;;;0.25;52.63;102769.94;5093542;28;20071;-53
2023/02/09 01:02:01;;;;;;;26.70;10.23;;;;;;;0.31;51.82;102766.31;5092403;28;20048;-53
2023/02/09 01:04:28;;;;;;;27.63;10.57;;;;;;;0.24;52.51;102776.06;5094035;28;20566;-53
2023/02/09 01:06:55;;;;;;;25.23;10.05;;;;;;;0.19;52.02;102777.94;5077632;28;20055;-53
2023/02/09 01:09:22;;;;;;;23.13;9.95;;;;;;;0.22;52.35;102774.38;5074112;28;20504;-52
2023/02/09 01:11:48;;;;;;;24.85;9.60;;;;;;;0.17;52.74;102777.97;5073840;28;20098;-53
2023/02/09 01:14:15;;;;;;;22.95;10.13;;;;;;;0.11;52.66;102779.84;5073892;28;20102;-53
2023/02/09 01:16:42;;;;;;;27.20;10.68;;;;;;;0.14;53.11;102777.19;5089216;28;20060;-52
2023/02/09 01:19:10;;;;;;;25.02;10.02;;;;;;;0.23;53.11;102781.34;5074772;28;20036;-51
2023/02/09 01:21:37;;;;;;;24.20;10.18;;;;;;;0.12;52.74;102771.16;5093899;28;20055;-53
2023/02/09 01:24:04;;;;;;;28.73;10.27;;;;;;;0.05;52.64;102772.19;5092839;28;20052;-52
2023/02/09 01:26:31;;;;;;;24.83;10.35;;;;;;;0.15;53.28;102769.31;5093954;28;20055;-53
2023/02/09 01:28:57;;;;;;;25.67;10.68;;;;;;;0.10;53.30;102760.75;5092791;28;20051;-51
2023/02/09 01:31:28;;;;;;;25.75;10.35;;;;;;;0.11;53.30;102761.59;5093437;28;20431;-52
2023/02/09 01:33:56;;;;;;;28.25;10.82;;;;;;;0.08;53.24;102764.28;5092151;28;20044;-53
2023/02/09 01:36:26;;;;;;;25.43;11.17;;;;;;;0.12;53.46;102766.78;5093929;28;20048;-52
2023/02/09 01:38:54;;;;;;;29.85;11.05;;;;;;;0.05;53.84;102759.97;5093635;28;20064;-52
2023/02/09 01:41:21;;;;;;;28.60;10.90;;;;;;;0.10;53.28;102763.34;5093982;28;20130;-53
2023/02/09 01:43:51;;;;;;;32.78;11.35;;;;;;;0.00;54.47;102764.47;5093560;28;20490;-53
2023/02/09 01:46:19;;;;;;;29.50;10.95;;;;;;;-0.03;53.76;102767.16;5093606;28;20067;-52
2023/02/09 01:48:49;;;;;;;25.92;10.43;;;;;;;-0.06;53.67;102762.00;5094279;28;20048;-53
2023/02/09 01:51:17;;;;;;;28.05;11.77;;;;;;;0.07;53.87;102768.63;5094744;28;20477;-53
2023/02/09 01:53:45;;;;;;;28.15;10.70;;;;;;;0.11;54.29;102772.03;5093899;28;20048;-51
2023/02/09 01:56:18;;;;;;;30.48;11.13;;;;;;;0.04;54.57;102760.91;5093628;28;20047;-52
2023/02/09 01:58:45;;;;;;;29.58;11.57;;;;;;;-0.04;54.19;102768.03;5091775;28;20510;-51
2023/02/09 02:01:14;;;;;;;28.10;10.63;;;;;;;-0.01;54.97;102766.22;5092686;28;20050;-53
2023/02/09 02:03:40;;;;;;;32.53;11.93;;;;;;;-0.02;54.67;102764.50;5092286;28;20097;-53
2023/02/09 02:06:11;;;;;;;28.38;11.77;;;;;;;0.04;54.46;102765.22;5093209;28;20118;-53
2023/02/09 02:08:46;;;;;;;25.85;11.05;;;;;;;0.01;55.31;102767.94;5093458;28;20185;-52
2023/02/09 02:11:15;;;;;;;26.30;11.48;;;;;;;-0.11;55.47;102761.25;5093428;28;20076;-52
2023/02/09 02:13:42;;;;;;;31.17;11.93;;;;;;;-0.01;55.12;102757.53;5093486;28;20044;-53
2023/02/09 02:16:37;;;;;;;30.23;10.88;;;;;;;-0.12;55.62;102751.72;5093207;28;20059;-51
2023/02/09 02:19:36;;;;;;;28.27;11.60;;;;;;;-0.13;55.99;102749.97;5092744;28;20044;-52
2023/02/09 02:22:14;;;;;;;31.98;11.48;;;;;;;-0.16;55.78;102745.72;5093042;28;20059;-53
2023/02/09 02:27:37;;;;;;;29.65;11.32;;;;;;;-0.17;55.07;102753.56;5111267;27;20377;-54
2023/02/09 02:30:35;;;;;;;30.92;12.02;;;;;;;-0.11;56.31;102750.81;5111144;28;20430;-53
2023/02/09 02:33:30;;;;;;;31.10;11.20;;;;;;;-0.28;56.46;102764.25;5110929;28;20044;-52
2023/02/09 02:36:08;;;;;;;28.50;11.32;;;;;;;-0.14;55.81;102771.78;5110848;28;20039;-53
2023/02/09 02:39:01;;;;;;;33.10;11.88;;;;;;;-0.25;55.93;102761.56;5111486;28;20123;-51
2023/02/09 02:44:53;;;;;;;28.67;10.95;;;;;;;-0.28;56.79;102769.47;5111007;28;20051;-52
2023/02/09 02:47:21;;;;;;;34.20;12.02;;;;;;;-0.27;56.31;102769.44;5110776;28;20116;-53
2023/02/09 02:49:57;;;;;;;30.20;12.38;;;;;;;-0.22;57.00;102767.59;5110970;28;20067;-53
2023/02/09 02:52:24;;;;;;;33.40;12.18;;;;;;;-0.16;56.85;102769.19;5110658;28;20375;-53
2023/02/09 02:54:59;;;;;;;37.65;11.90;;;;;;;-0.17;56.94;102771.81;5110952;28;20465;-53
2023/02/09 02:57:31;;;;;;;35.75;12.60;;;;;;;-0.16;57.09;102770.91;5110726;28;20554;-52
2023/02/09 03:00:01;;;;;;;;;;;;;;;-0.25;57.40;102757.19;5110780;28;20052;-53
2023/02/09 03:02:33;;;;;;;30.80;12.13;;;;;;;-0.22;57.68;102762.38;5110057;28;20335;-51
2023/02/09 03:05:02;;;;;;;33.70;11.60;;;;;;;-0.13;57.40;102763.03;5110883;28;20281;-51
2023/02/09 03:07:30;;;;;;;35.78;11.60;;;;;;;-0.16;57.90;102763.97;5100603;28;20048;-53
2023/02/09 03:09:56;;;;;;;31.27;11.98;;;;;;;-0.27;58.35;102755.53;5090453;28;20101;-52
2023/02/09 03:12:50;;;;;;;37.20;12.63;;;;;;;-0.20;57.72;102754.47;5089831;28;20094;-53
2023/02/09 03:15:30;;;;;;;31.38;12.23;;;;;;;-0.31;58.26;102759.09;5090000;28;20052;-51
2023/02/09 03:18:12;;;;;;;31.52;12.07;;;;;;;-0.32;58.40;102755.63;5089810;28;20045;-53
2023/02/09 03:20:45;;;;;;;35.70;13.40;;;;;;;-0.33;59.06;102766.94;5104235;28;20047;-52
2023/02/09 03:23:25;;;;;;;33.63;12.55;;;;;;;-0.27;59.13;102759.00;5110340;28;20055;-52
2023/02/09 03:25:55;;;;;;;33.38;13.32;;;;;;;-0.28;58.80;102761.63;5109927;28;20439;-52
2023/02/09 03:28:29;;;;;;;38.30;12.07;;;;;;;-0.30;59.42;102766.03;5109958;28;20467;-52
2023/02/09 03:30:57;;;;;;;32.40;11.80;;;;;;;-0.41;59.49;102756.69;5109934;28;20047;-53
2023/02/09 03:33:28;;;;;;;35.20;12.48;;;;;;;-0.34;59.34;102757.41;5110014;28;20048;-52
2023/02/09 03:35:56;;;;;;;33.58;12.93;;;;;;;-0.36;59.56;102751.38;5110286;28;20048;-53
2023/02/09 03:38:23;;;;;;;33.97;12.77;;;;;;;-0.38;59.78;102750.56;5099332;28;20052;-53
2023/02/09 03:40:52;;;;;;;34.08;12.43;;;;;;;-0.48;60.04;102749.03;5096585;28;20051;-53
2023/02/09 03:43:19;;;;;;;32.33;13.35;;;;;;;-0.48;60.79;102751.63;5096548;28;20493;-53
2023/02/09 03:45:45;;;;;;;35.65;13.27;;;;;;;-0.40;60.98;102754.91;5095825;28;20094;-53
2023/02/09 03:48:12;;;;;;;33.17;12.27;;;;;;;-0.40;60.50;102744.50;5096385;28;20094;-52
2023/02/09 03:50:38;;;;;;;37.53;13.73;;;;;;;-0.45;60.56;102738.53;5096159;28;20534;-52
2023/02/09 03:53:05;;;;;;;33.63;13.50;;;;;;;-0.43;60.86;102742.81;5096286;28;20402;-53
2023/02/09 03:55:32;;;;;;;33.60;13.00;;;;;;;-0.52;61.14;102742.19;5095731;28;20405;-53
2023/02/09 03:57:59;;;;;;;36.42;14.10;;;;;;;-0.65;61.56;102742.44;5096060;28;20048;-54
2023/02/09 04:00:26;;;;;;;36.47;13.75;;;;;;;-0.79;61.74;102724.47;5095137;28;20059;-52
2023/02/09 04:02:55;;;;;;;32.95;12.85;;;;;;;-0.72;61.80;102721.75;5094809;28;20126;-51
2023/02/09 04:05:21;;;;;;;37.28;13.40;;;;;;;-0.63;61.82;102729.38;5095720;28;20455;-54
2023/02/09 04:07:48;;;;;;;38.40;14.02;;;;;;;-0.64;61.26;102728.53;5095857;28;20044;-53
2023/02/09 04:10:15;;;;;;;30.77;13.13;;;;;;;-0.57;61.28;102731.84;5095909;28;20048;-50
2023/02/09 04:12:41;;;;;;;33.08;13.80;;;;;;;-0.55;61.16;102731.81;5095777;28;20113;-52
2023/02/09 04:15:09;;;;;;;32.58;12.88;;;;;;;-0.59;61.13;102728.41;5095804;28;20040;-52
2023/02/09 04:17:35;;;;;;;34.55;13.43;;;;;;;-0.55;61.39;102729.19;5095769;28;20134;-54
2023/02/09 04:20:02;;;;;;;35.50;13.00;;;;;;;-0.59;61.62;102729.25;5096123;28;20051;-52
2023/02/09 04:22:30;;;;;;;29.95;12.98;;;;;;;-0.58;61.94;102724.94;5095741;28;20048;-52
2023/02/09 04:24:57;;;;;;;35.97;13.82;;;;;;;-0.57;61.75;102720.56;5095570;28;20044;-50
2023/02/09 04:27:23;;;;;;;35.65;13.30;;;;;;;-0.60;61.70;102714.53;5095045;28;20134;-53
2023/02/09 04:29:50;;;;;;;34.55;13.40;;;;;;;-0.67;61.70;102706.88;5095340;28;20044;-51
2023/02/09 04:32:16;;;;;;;35.08;14.13;;;;;;;-0.66;62.02;102711.19;5095281;28;20083;-52
2023/02/09 04:34:43;;;;;;;34.63;13.25;;;;;;;-0.61;61.52;102714.56;5095176;28;20051;-50
2023/02/09 04:37:10;;;;;;;35.45;13.93;;;;;;;-0.54;61.74;102715.28;5095325;28;20135;-53
2023/02/09 04:39:36;;;;;;;37.17;14.18;;;;;;;-0.62;62.19;102712.81;5095343;28;20070;-51
2023/02/09 04:42:03;;;;;;;39.13;14.60;;;;;;;-0.68;62.19;102705.16;5095230;28;20102;-52
2023/02/09 04:44:30;;;;;;;39.60;14.30;;;;;;;-0.71;62.60;102702.59;5094849;28;20085;-52
2023/02/09 04:46:56;;;;;;;40.92;14.20;;;;;;;-0.80;62.45;102696.72;5094906;28;20059;-52
2023/02/09 04:49:23;;;;;;;34.45;14.30;;;;;;;-0.80;62.44;102694.09;5093026;28;20082;-51
2023/02/09 04:51:49;;;;;;;36.67;14.43;;;;;;;-0.79;63.17;102690.59;5094805;28;20068;-52
2023/02/09 04:54:16;;;;;;;35.67;14.13;;;;;;;-0.88;63.16;102693.38;5095067;28;20052;-51
2023/02/09 04:56:43;;;;;;;36.58;14.00;;;;;;;-0.87;63.50;102695.13;5094600;28;20036;-52
2023/02/09 04:59:43;;;;;;;36.75;14.38;;;;;;;-0.86;63.16;102695.97;5094484;28;20060;-51
2023/02/09 05:01:56;;;;;;;39.03;14.23;;;;;;;-0.81;63.14;102694.13;5094017;28;20055;-51
2023/02/09 05:04:23;;;;;;;35.95;13.68;;;;;;;-0.77;63.17;102694.00;5094729;28;20118;-52
2023/02/09 05:06:50;;;;;;;33.83;14.13;;;;;;;-0.81;63.54;102689.75;5088826;28;20067;-52
2023/02/09 05:09:16;;;;;;;33.22;13.98;;;;;;;-0.90;63.42;102686.50;5094453;28;20052;-53
2023/02/09 05:11:43;;;;;;;36.10;14.48;;;;;;;-0.88;63.49;102679.50;5093690;28;20040;-51
2023/02/09 05:14:10;;;;;;;38.97;14.45;;;;;;;-0.86;63.48;102685.53;5093701;28;20036;-51
2023/02/09 05:16:36;;;;;;;38.40;13.68;;;;;;;-0.93;63.69;102682.19;5094362;28;20036;-53
2023/02/09 05:19:04;;;;;;;38.65;14.95;;;;;;;-0.91;63.63;102682.19;5094433;28;20048;-53
2023/02/09 05:21:31;;;;;;;34.20;13.80;;;;;;;-0.78;62.90;102691.47;5094479;28;20567;-53
2023/02/09 05:23:58;;;;;;;41.63;15.10;;;;;;;-0.90;63.30;102684.75;5094060;28;20097;-51
2023/02/09 05:26:25;;;;;;;41.00;14.27;;;;;;;-0.88;63.73;102688.19;5093976;28;20052;-52
2023/02/09 05:28:51;;;;;;;39.03;14.63;;;;;;;-0.81;63.72;102694.13;5094085;28;20176;-52
2023/02/09 05:31:19;;;;;;;39.15;14.70;;;;;;;-0.83;63.64;102694.16;5094123;28;20564;-52
2023/02/09 05:33:45;;;;;;;36.13;14.45;;;;;;;-0.97;63.50;102699.66;5093867;28;20040;-52
2023/02/09 05:36:12;;;;;;;38.20;15.00;;;;;;;-0.91;64.09;102697.81;5094149;28;20398;-50
2023/02/09 05:38:39;;;;;;;38.65;14.38;;;;;;;-0.88;64.27;102702.97;5094002;28;20082;-52
2023/02/09 05:41:07;;;;;;;41.55;14.25;;;;;;;-0.97;64.92;102697.03;5094066;28;20070;-51
2023/02/09 05:43:35;;;;;;;34.28;14.80;;;;;;;-0.89;64.78;102698.63;5094223;28;20047;-52
2023/02/09 05:46:02;;;;;;;43.80;16.13;;;;;;;-0.90;64.29;102695.19;5093823;28;20055;-51
2023/02/09 05:48:29;;;;;;;38.53;15.27;;;;;;;-1.05;64.57;102691.16;5093888;28;20044;-52
2023/02/09 05:50:55;;;;;;;39.72;15.60;;;;;;;-0.97;64.64;102688.38;5093807;28;20097;-53
2023/02/09 05:53:22;;;;;;;40.05;15.38;;;;;;;-0.93;64.64;102681.34;5093885;28;20044;-51
2023/02/09 05:55:49;;;;;;;41.58;15.88;;;;;;;-1.08;65.01;102672.97;5093547;28;20424;-51
2023/02/09 05:58:15;;;;;;;37.58;14.70;;;;;;;-1.07;64.94;102674.69;5093706;28;20044;-51
2023/02/09 06:00:42;;;;;;;36.00;15.25;;;;;;;-1.04;64.84;102671.16;5092875;28;20051;-52
2023/02/09 06:03:10;;;;;;;39.20;14.85;;;;;;;-1.02;65.15;102672.84;5093760;28;20047;-51
2023/02/09 06:05:37;;;;;;;44.90;16.67;;;;;;;-1.23;65.71;102674.13;5093674;28;20122;-51
2023/02/09 06:08:04;;;;;;;41.53;14.90;;;;;;;-1.13;65.02;102671.34;5093592;28;20040;-54
2023/02/09 06:10:31;;;;;;;43.92;15.43;;;;;;;-1.12;64.52;102670.47;5093506;28;20048;-52
2023/02/09 06:12:57;;;;;;;39.83;16.17;;;;;;;-1.21;65.14;102671.50;5092548;28;20044;-52
2023/02/09 06:15:24;;;;;;;37.42;15.70;;;;;;;-1.22;65.39;102667.19;5093514;28;20048;-53
2023/02/09 06:17:51;;;;;;;43.40;15.77;;;;;;;-1.13;64.82;102674.78;5093102;28;20100;-52
2023/02/09 06:20:17;;;;;;;43.28;15.20;;;;;;;-1.42;65.79;102681.47;5093536;28;20501;-53
2023/02/09 06:22:44;;;;;;;42.30;15.57;;;;;;;-1.24;65.22;102681.97;5093727;28;20053;-53
2023/02/09 06:25:11;;;;;;;38.00;14.52;;;;;;;-1.20;65.34;102684.50;5092906;28;20599;-51
2023/02/09 06:27:38;;;;;;;43.28;16.30;;;;;;;-1.19;65.04;102688.81;5091902;28;20135;-52
2023/02/09 06:30:05;;;;;;;38.20;15.60;;;;;;;-1.06;64.56;102699.00;5093373;28;20071;-53
2023/02/09 06:32:32;;;;;;;48.47;16.00;;;;;;;-1.11;65.04;102700.81;5093123;28;20378;-52
2023/02/09 06:34:58;;;;;;;50.83;16.85;;;;;;;-1.14;65.19;102709.56;5093614;28;20040;-51
2023/02/09 06:37:25;;;;;;;50.20;21.30;;;;;;;-1.09;65.01;102706.84;5093890;28;20496;-53
2023/02/09 06:39:52;;;;;;;40.10;16.83;;;;;;;-1.08;65.01;102709.44;5092936;28;20055;-53
2023/02/09 06:42:18;;;;;;;42.47;16.70;;;;;;;-1.09;65.14;102706.84;5092070;28;20090;-51
2023/02/09 06:44:45;;;;;;;40.42;16.00;;;;;;;-1.08;65.26;102705.97;5093138;28;20142;-51
2023/02/09 06:47:11;;;;;;;42.78;15.57;;;;;;;-1.08;64.95;102700.78;5092423;28;20086;-51
2023/02/09 06:49:38;;;;;;;44.78;15.43;;;;;;;-1.22;65.63;102707.13;5092833;28;20059;-52
2023/02/09 06:52:05;;;;;;;50.15;16.55;;;;;;;-1.14;65.22;102711.31;5091257;28;20064;-53
2023/02/09 06:54:31;;;;;;;44.17;17.45;;;;;;;-1.17;65.71;102718.28;5092633;28;20067;-51
2023/02/09 06:56:58;;;;;;;44.15;17.00;;;;;;;-1.14;65.46;102717.38;5092604;28;20064;-52
2023/02/09 06:59:25;;;;;;;40.45;15.68;;;;;;;-1.03;65.22;102711.97;5092365;28;20050;-53
2023/02/09 07:01:52;;;;;;;50.38;16.35;;;;;;;-0.99;65.28;102701.44;5092354;28;20048;-54
2023/02/09 07:04:21;;;;;;;50.80;17.05;;;;;;;-1.24;65.83;102710.63;5092638;28;20058;-54
2023/02/09 07:06:49;;;;;;;42.20;16.40;;;;;;;-1.19;65.94;102724.41;5084763;28;20047;-51
2023/02/09 07:09:16;;;;;;;45.10;16.20;;;;;;;-1.05;65.69;102721.56;5084195;28;20052;-52
2023/02/09 07:11:43;;;;;;;50.15;17.83;;;;;;;-1.05;65.97;102734.59;5089543;28;20124;-51
2023/02/09 07:14:10;;;;;;;41.83;16.40;;;;;;;-1.03;64.82;102728.44;5095139;28;20051;-51
2023/02/09 07:16:36;;;;;;;40.17;16.50;;;;;;;-1.02;64.99;102734.50;5096550;28;20500;-54
2023/02/09 07:19:03;;;;;;;41.10;16.13;;;;;;;-0.96;65.16;102729.19;5096546;28;20448;-52
2023/02/09 07:21:30;;;;;;;45.70;16.00;;;;;;;-0.96;65.25;102737.00;5096472;28;20043;-53
2023/02/09 07:23:56;;;;;;;44.42;16.58;;;;;;;-0.98;65.06;102724.00;5096449;28;20047;-53
2023/02/09 07:26:23;;;;;;;47.03;16.77;;;;;;;-0.95;64.66;102725.69;5096127;28;20088;-52
2023/02/09 07:28:50;;;;;;;49.33;17.80;;;;;;;-0.75;64.57;102724.41;5096375;28;20458;-54
2023/02/09 07:31:17;;;;;;;46.60;17.42;;;;;;;-0.81;64.22;102728.00;5095273;28;20481;-54
2023/02/09 07:33:44;;;;;;;46.15;18.25;;;;;;;-0.73;63.75;102728.69;5096264;28;20130;-53
2023/02/09 07:36:13;;;;;;;52.13;17.13;;;;;;;-0.83;64.07;102728.03;5096266;28;20445;-54
2023/02/09 07:38:40;;;;;;;50.25;16.92;;;;;;;-0.67;64.10;102723.38;5095907;28;20423;-53
2023/02/09 07:41:13;;;;;;;50.33;17.67;;;;;;;-0.70;63.69;102715.59;5090699;28;20048;-54
2023/02/09 07:43:41;;;;;;;51.78;17.70;;;;;;;-0.88;63.83;102721.22;5075133;28;20075;-54
2023/02/09 07:46:08;;;;;;;49.88;18.30;;;;;;;-0.76;63.99;102728.78;5084996;28;20561;-54
2023/02/09 07:48:35;;;;;;;47.92;17.58;;;;;;;-0.69;64.20;102726.88;5107936;28;20047;-54
2023/02/09 07:51:02;;;;;;;46.35;17.67;;;;;;;-0.69;63.40;102721.66;5094246;28;20097;-53
2023/02/09 07:53:29;;;;;;;50.30;17.77;;;;;;;-0.55;63.42;102732.66;5103834;28;20050;-52
2023/02/09 07:55:55;;;;;;;43.83;17.45;;;;;;;-0.56;63.73;102728.34;5109238;28;20505;-53
2023/02/09 07:58:23;;;;;;;48.85;17.67;;;;;;;-0.50;62.98;102729.97;5106041;28;20036;-53
2023/02/09 08:00:50;;;;;;;45.80;17.10;;;;;;;-0.53;62.90;102727.41;5076979;28;20044;-53
2023/02/09 08:03:19;;;;;;;53.83;17.90;;;;;;;-0.36;63.07;102732.25;5087364;28;20086;-53
2023/02/09 08:05:59;;;;;;;49.45;17.67;;;;;;;-0.27;63.27;102732.06;5098638;28;20493;-51
2023/02/09 08:08:27;;;;;;;47.35;17.67;;;;;;;-0.22;62.65;102740.63;5102933;28;20039;-53
2023/02/09 08:10:56;;;;;;;50.58;19.30;;;;;;;-0.28;62.55;102744.22;5097892;28;20422;-53
2023/02/09 08:13:27;;;;;;;49.92;17.67;;;;;;;-0.48;62.99;102736.00;5101968;28;20054;-52
2023/02/09 08:15:59;;;;;;;45.08;17.98;;;;;;;-0.30;63.54;102735.59;5085023;28;20051;-53
2023/02/09 08:18:32;;;;;;;46.50;18.25;;;;;;;-0.14;62.65;102730.88;5098319;28;20483;-54
2023/02/09 08:20:59;;;;;;;45.95;17.15;;;;;;;0.02;62.08;102743.53;5083425;28;20135;-52
2023/02/09 08:23:30;;;;;;;50.00;18.58;;;;;;;0.10;61.80;102752.91;5090352;28;20044;-51
2023/02/09 08:26:01;;;;;;;48.28;18.35;;;;;;;0.39;60.57;102753.94;5087046;28;20052;-52
2023/02/09 08:28:28;;;;;;;44.20;17.35;;;;;;;0.72;59.84;102762.66;5095745;28;20501;-52
2023/02/09 08:31:11;;;;;;;49.83;17.67;;;;;;;1.05;58.58;102764.38;5074655;28;20047;-51
2023/02/09 08:33:39;;;;;;;52.92;17.63;;;;;;;0.99;57.43;102759.34;5095821;28;20048;-51
2023/02/09 08:36:06;;;;;;;43.03;17.98;;;;;;;0.82;58.40;102768.50;5087841;28;20052;-52
2023/02/09 08:38:33;;;;;;;46.28;18.33;;;;;;;0.88;58.29;102764.88;5077431;28;20036;-52
2023/02/09 08:41:03;;;;;;;47.53;19.65;;;;;;;1.57;57.04;102769.88;5099271;28;20635;-51
2023/02/09 08:43:31;;;;;;;51.35;20.20;;;;;;;1.64;55.96;102774.88;5087337;28;20067;-53
2023/02/09 08:46:04;;;;;;;50.13;19.55;;;;;;;1.76;55.36;102778.88;5066334;28;20036;-52
2023/02/09 08:48:35;;;;;;;46.83;19.33;;;;;;;1.74;55.63;102785.91;5100496;28;20040;-52
2023/02/09 08:51:02;;;;;;;53.78;19.25;;;;;;;1.38;56.08;102790.47;5097922;28;20044;-52
2023/02/09 08:53:29;;;;;;;45.42;18.45;;;;;;;0.99;57.62;102783.72;5066118;28;20090;-52
2023/02/09 08:55:56;;;;;;;49.20;19.42;;;;;;;0.91;58.36;102783.94;5083121;28;20047;-51
2023/02/09 08:58:24;;;;;;;51.03;19.38;;;;;;;1.00;58.03;102787.19;5086776;28;20051;-52
2023/02/09 09:00:58;;;;;;;46.70;18.40;;;;;;;0.82;58.00;102792.03;5080239;28;20058;-55
2023/02/09 09:03:28;;;;;;;52.35;18.75;;;;;;;0.76;58.25;102786.94;5096361;28;20075;-52
2023/02/09 09:06:00;;;;;;;48.67;19.83;;;;;;;0.82;59.31;102794.63;5089831;28;20051;-50
2023/02/09 09:08:29;;;;;;;45.50;19.35;;;;;;;0.80;59.21;102779.88;5066101;28;20119;-53
2023/02/09 09:10:56;;;;;;;48.63;19.08;;;;;;;0.80;58.79;102783.38;5080224;28;20036;-52
2023/02/09 09:13:24;;;;;;;51.17;20.05;;;;;;;0.88;59.26;102785.78;5078545;28;20504;-53
2023/02/09 09:15:53;;;;;;;54.05;20.20;;;;;;;0.77;58.97;102791.28;5055760;28;20133;-53
2023/02/09 09:18:22;;;;;;;53.05;20.55;;;;;;;0.89;58.81;102793.56;5081121;28;20452;-51
2023/02/09 09:20:49;;;;;;;50.17;19.05;;;;;;;0.95;59.80;102797.78;5075691;28;20052;-51
2023/02/09 09:23:16;;;;;;;51.92;17.92;;;;;;;1.02;59.42;102804.56;5083279;28;20039;-51
2023/02/09 09:25:43;;;;;;;46.47;19.05;;;;;;;1.03;59.00;102808.00;5081583;28;20048;-53
2023/02/09 09:28:10;;;;;;;46.75;18.67;;;;;;;1.16;58.73;102809.38;5088468;28;20037;-52
2023/02/09 09:30:37;;;;;;;51.10;19.70;;;;;;;1.27;58.44;102809.94;5099644;28;20040;-52
2023/02/09 09:33:03;;;;;;;53.30;20.05;;;;;;;1.32;58.84;102805.44;5091910;28;20043;-52
2023/02/09 09:35:31;;;;;;;47.78;21.02;;;;;;;1.33;58.38;102801.09;5076364;28;20035;-54
2023/02/09 09:37:58;;;;;;;57.17;21.00;;;;;;;1.36;58.34;102800.13;5076861;28;20044;-53
2023/02/09 09:40:30;;;;;;;47.97;20.35;;;;;;;1.45;57.57;102802.47;5067979;28;20048;-52
2023/02/09 09:43:01;;;;;;;50.13;20.80;;;;;;;1.58;57.40;102801.22;5083433;28;20123;-51
2023/02/09 09:45:29;;;;;;;51.47;20.48;;;;;;;1.45;57.94;102803.31;5083751;28;20080;-50
2023/02/09 09:47:56;;;;;;;47.97;20.13;;;;;;;1.28;57.46;102809.06;5070744;28;20029;-53
2023/02/09 09:50:28;;;;;;;46.45;20.08;;;;;;;1.52;57.69;102807.47;5092377;28;20130;-51
2023/02/09 09:52:59;;;;;;;;;;;;;;;1.84;57.05;102805.69;5088313;28;20039;-50
2023/02/09 09:55:29;;;;;;;45.37;19.37;;;;;;;1.78;56.42;102805.00;5092590;28;19920;-53
2023/02/09 09:57:59;;;;;;;49.70;19.50;;;;;;;1.80;56.99;102809.31;5082499;28;20024;-51
2023/02/09 10:00:32;;;;;;;51.97;21.73;;;;;;;1.67;57.70;102811.44;5103419;28;20477;-50
2023/02/09 10:02:59;;;;;;;52.45;20.52;;;;;;;1.64;57.17;102808.91;5101686;28;20101;-53
2023/02/09 10:05:28;;;;;;;52.03;20.25;;;;;;;1.85;57.23;102810.00;5084721;28;20140;-52
2023/02/09 10:08:05;;;;;;;55.55;20.92;;;;;;;1.84;56.10;102805.69;5101803;28;20090;-53
2023/02/09 10:10:56;;;;;;;52.65;20.73;;;;;;;1.87;57.43;102802.09;5088954;28;20055;-51
2023/02/09 10:13:31;;;;;;;52.75;19.70;;;;;;;2.02;56.93;102804.25;5091651;28;20444;-51
2023/02/09 10:15:58;;;;;;;49.97;19.80;;;;;;;2.35;56.98;102800.56;5088298;28;20481;-52
2023/02/09 10:18:25;;;;;;;46.50;20.80;;;;;;;2.59;56.58;102777.97;5089336;28;20082;-52
2023/02/09 10:21:00;;;;;;;49.00;20.92;;;;;;;2.68;55.99;102757.53;5092451;28;20082;-52
2023/02/09 10:23:41;;;;;;;54.25;20.45;;;;;;;2.33;55.53;102763.09;5084856;28;20140;-52
2023/02/09 10:28:50;;;;;;;53.60;20.08;;;;;;;2.60;56.03;102775.28;5105990;27;20725;-53
2023/02/09 10:31:38;;;;;;;54.15;21.48;;;;;;;2.77;55.29;102772.09;5109961;28;20044;-52
2023/02/09 10:34:14;;;;;;;51.88;20.65;;;;;;;3.08;54.27;102784.09;5104890;28;20047;-54
2023/02/09 10:37:13;;;;;;;50.40;19.88;;;;;;;3.11;53.86;102791.00;5103982;28;20075;-53
2023/02/09 10:39:39;;;;;;;47.53;20.17;;;;;;;3.44;53.46;102789.75;5099821;28;20044;-52
2023/02/09 10:42:29;;;;;;;49.60;20.55;;;;;;;3.38;52.16;102795.22;5043914;27;20140;-52
2023/02/09 10:45:04;;;;;;;48.80;20.65;;;;;;;3.49;52.76;102784.31;5055852;28;20069;-51
2023/02/09 10:47:32;;;;;;;47.97;20.55;;;;;;;3.55;52.06;102778.00;5050326;28;20033;-52
2023/02/09 10:50:16;;;;;;;50.33;20.70;;;;;;;3.37;52.28;102780.41;5050908;28;20517;-53
2023/02/09 10:52:55;;;;;;;47.42;20.00;;;;;;;3.59;52.89;102776.97;5069962;28;20569;-53
2023/02/09 10:55:40;;;;;;;46.60;19.75;;;;;;;3.67;51.37;102776.66;5070193;28;20124;-52
2023/02/09 11:00:51;;;;;;;47.30;20.02;;;;;;;4.06;51.28;102778.63;5109081;27;20178;-53
2023/02/09 11:03:24;;;;;;;46.72;19.45;;;;;;;4.20;49.86;102769.28;5096710;28;20050;-54
2023/02/09 11:06:16;;;;;;;46.83;20.05;;;;;;;4.37;49.92;102778.25;5090792;28;20040;-53
2023/02/09 11:08:45;;;;;;;;;;;;;;;4.69;48.94;102776.00;5083454;28;20048;-52
2023/02/09 11:11:35;;;;;;;45.42;19.27;;;;;;;4.38;49.58;102775.56;5111263;28;19920;-53
2023/02/09 11:14:02;;;;;;;47.30;20.27;;;;;;;4.81;48.61;102765.81;5093710;28;20070;-51
2023/02/09 11:16:56;;;;;;;49.17;20.23;;;;;;;5.82;45.88;102755.97;5058701;28;20049;-52
2023/02/09 11:19:46;;;;;;;49.15;19.60;;;;;;;7.38;42.25;102762.94;5012257;28;20077;-52
2023/02/09 11:22:23;;;;;;;53.03;21.05;;;;;;;8.49;40.51;102758.50;5008547;28;20072;-52
2023/02/09 11:25:23;;;;;;;43.90;19.87;;;;;;;9.30;38.46;102760.63;5022640;28;20056;-51
2023/02/09 11:28:21;;;;;;;46.00;19.83;;;;;;;10.04;36.37;102759.41;5014671;28;20936;-52
2023/02/09 11:31:28;;;;;;;43.63;19.70;;;;;;;10.11;35.87;102755.34;5014476;28;20050;-51
2023/02/09 11:34:20;;;;;;;47.17;18.83;;;;;;;10.88;33.99;102762.63;5018558;28;20454;-51
2023/02/09 11:39:39;;;;;;;41.60;20.58;;;;;;;11.56;32.47;102777.28;5053505;28;20411;-53
2023/02/09 11:42:46;;;;;;;37.92;19.25;;;;;;;11.66;32.06;102774.78;5052878;28;20119;-52
2023/02/09 11:45:08;;;;;;;38.33;18.35;;;;;;;11.05;32.55;102778.22;5061992;28;20055;-54